sensor_id;sensor_type;location;lat;lon;timestamp;pressure;altitude;pressure_sealevel;temperature;humidity
38033;BME280;23841;48.524;1.342;2023-04-23T00:00:02;61197.16;;;-147.44;100.00
38033;BME280;23841;48.524;1.342;2023-04-23T00:02:28;61197.16;;;-147.44;100.00
38033;BME280;23841;48.524;1.342;2023-04-23T00:05:02;61197.16;;;-147.44;100.00
38033;BME280;23841;48.524;1.342;2023-04-23T00:07:31;61197.16;;;-147.44;100.00
38033;BME280;23841;48.524;1.342;2023-04-23T00:09:58;61197.16;;;-147.44;100.00
38033;BME280;23841;48.524;1.342;2023-04-23T00:12:24;61197.16;;;-147.44;100.00
38033;BME280;23841;48.524;1.342;2023-04-23T00:14:50;61197.16;;;-147.44;100.00
38033;BME280;23841;48.524;1.342;2023-04-23T00:17:16;61197.16;;;-147.44;100.00
38033;BME280;23841;48.524;1.342;2023-04-23T00:19:41;61197.16;;;-147.44;100.00
38033;BME280;23841;48.524;1.342;2023-04-23T00:22:07;61197.16;;;-147.44;100.00
38033;BME280;23841;48.524;1.342;2023-04-23T00:24:32;61197.16;;;-147.44;100.00
38033;BME280;23841;48.524;1.342;2023-04-23T00:27:00;61197.16;;;-147.44;100.00
38033;BME280;23841;48.524;1.342;2023-04-23T00:29:26;61197.16;;;-147.44;100.00
38033;BME280;23841;48.524;1.342;2023-04-23T00:31:52;61197.16;;;-147.44;100.00
38033;BME280;23841;48.524;1.342;2023-04-23T00:34:17;61197.16;;;-147.44;100.00
38033;BME280;23841;48.524;1.342;2023-04-23T00:36:43;61197.16;;;-147.44;100.00
38033;BME280;23841;48.524;1.342;2023-04-23T00:39:08;61197.16;;;-147.44;100.00
38033;BME280;23841;48.524;1.342;2023-04-23T00:41:35;61197.16;;;-147.44;100.00
38033;BME280;23841;48.524;1.342;2023-04-23T00:44:01;61197.16;;;-147.44;100.00
38033;BME280;23841;48.524;1.342;2023-04-23T00:46:27;61197.16;;;-147.44;100.00
38033;BME280;23841;48.524;1.342;2023-04-23T00:48:53;61197.16;;;-147.44;100.00
38033;BME280;23841;48.524;1.342;2023-04-23T00:51:22;61197.16;;;-147.44;100.00
38033;BME280;23841;48.524;1.342;2023-04-23T00:53:49;61197.16;;;-147.44;100.00
38033;BME280;23841;48.524;1.342;2023-04-23T00:56:16;61197.16;;;-147.44;100.00
38033;BME280;23841;48.524;1.342;2023-04-23T00:58:42;61197.16;;;-147.44;100.00
38033;BME280;23841;48.524;1.342;2023-04-23T01:01:08;61197.16;;;-147.44;100.00
38033;BME280;23841;48.524;1.342;2023-04-23T01:03:34;61197.16;;;-147.44;100.00
38033;BME280;23841;48.524;1.342;2023-04-23T01:06:01;61197.16;;;-147.44;100.00
38033;BME280;23841;48.524;1.342;2023-04-23T01:08:27;61197.16;;;-147.44;100.00
38033;BME280;23841;48.524;1.342;2023-04-23T01:10:54;61197.16;;;-147.44;100.00
38033;BME280;23841;48.524;1.342;2023-04-23T01:13:20;61197.16;;;-147.44;100.00
38033;BME280;23841;48.524;1.342;2023-04-23T01:15:46;61197.16;;;-147.44;100.00
38033;BME280;23841;48.524;1.342;2023-04-23T01:18:13;61197.16;;;-147.44;100.00
38033;BME280;23841;48.524;1.342;2023-04-23T01:20:39;61197.16;;;-147.44;100.00
38033;BME280;23841;48.524;1.342;2023-04-23T01:23:05;61197.16;;;-147.44;100.00
38033;BME280;23841;48.524;1.342;2023-04-23T01:25:30;61197.16;;;-147.44;100.00
38033;BME280;23841;48.524;1.342;2023-04-23T01:27:57;61197.16;;;-147.44;100.00
38033;BME280;23841;48.524;1.342;2023-04-23T01:30:24;61197.16;;;-147.44;100.00
38033;BME280;23841;48.524;1.342;2023-04-23T01:32:52;61197.16;;;-147.44;100.00
38033;BME280;23841;48.524;1.342;2023-04-23T01:35:18;61197.16;;;-147.44;100.00
38033;BME280;23841;48.524;1.342;2023-04-23T01:37:45;61197.16;;;-147.44;100.00
38033;BME280;23841;48.524;1.342;2023-04-23T01:40:11;61197.16;;;-147.44;100.00
38033;BME280;23841;48.524;1.342;2023-04-23T01:42:37;61197.16;;;-147.44;100.00
38033;BME280;23841;48.524;1.342;2023-04-23T01:45:03;61197.16;;;-147.44;100.00
38033;BME280;23841;48.524;1.342;2023-04-23T01:47:29;61197.16;;;-147.44;100.00
38033;BME280;23841;48.524;1.342;2023-04-23T01:49:54;61197.16;;;-147.44;100.00
38033;BME280;23841;48.524;1.342;2023-04-23T01:52:20;61197.16;;;-147.44;100.00
38033;BME280;23841;48.524;1.342;2023-04-23T01:54:45;61197.16;;;-147.44;100.00
38033;BME280;23841;48.524;1.342;2023-04-23T01:57:12;61197.16;;;-147.44;100.00
38033;BME280;23841;48.524;1.342;2023-04-23T01:59:38;61197.16;;;-147.44;100.00
38033;BME280;23841;48.524;1.342;2023-04-23T02:02:04;61197.16;;;-147.44;100.00
38033;BME280;23841;48.524;1.342;2023-04-23T02:04:29;61197.16;;;-147.44;100.00
38033;BME280;23841;48.524;1.342;2023-04-23T02:06:55;61197.16;;;-147.44;100.00
38033;BME280;23841;48.524;1.342;2023-04-23T02:09:21;61197.16;;;-147.44;100.00
38033;BME280;23841;48.524;1.342;2023-04-23T02:11:46;61197.16;;;-147.44;100.00
38033;BME280;23841;48.524;1.342;2023-04-23T02:14:12;61197.16;;;-147.44;100.00
38033;BME280;23841;48.524;1.342;2023-04-23T02:16:37;61197.16;;;-147.44;100.00
38033;BME280;23841;48.524;1.342;2023-04-23T02:19:03;61197.16;;;-147.44;100.00
38033;BME280;23841;48.524;1.342;2023-04-23T02:21:29;61197.16;;;-147.44;100.00
38033;BME280;23841;48.524;1.342;2023-04-23T02:23:55;61197.16;;;-147.44;100.00
38033;BME280;23841;48.524;1.342;2023-04-23T02:26:21;61197.16;;;-147.44;100.00
38033;BME280;23841;48.524;1.342;2023-04-23T02:28:49;61197.16;;;-147.44;100.00
38033;BME280;23841;48.524;1.342;2023-04-23T02:31:15;61197.16;;;-147.44;100.00
38033;BME280;23841;48.524;1.342;2023-04-23T02:33:42;61197.16;;;-147.44;100.00
38033;BME280;23841;48.524;1.342;2023-04-23T02:36:08;61197.16;;;-147.44;100.00
38033;BME280;23841;48.524;1.342;2023-04-23T02:38:36;61197.16;;;-147.44;100.00
38033;BME280;23841;48.524;1.342;2023-04-23T02:41:01;61197.16;;;-147.44;100.00
38033;BME280;23841;48.524;1.342;2023-04-23T02:43:27;61197.16;;;-147.44;100.00
38033;BME280;23841;48.524;1.342;2023-04-23T02:45:52;61197.16;;;-147.44;100.00
38033;BME280;23841;48.524;1.342;2023-04-23T02:48:18;61197.16;;;-147.44;100.00
38033;BME280;23841;48.524;1.342;2023-04-23T02:50:43;61197.16;;;-147.44;100.00
38033;BME280;23841;48.524;1.342;2023-04-23T02:53:09;61197.16;;;-147.44;100.00
38033;BME280;23841;48.524;1.342;2023-04-23T02:55:35;61197.16;;;-147.44;100.00
38033;BME280;23841;48.524;1.342;2023-04-23T02:58:01;61197.16;;;-147.44;100.00
38033;BME280;23841;48.524;1.342;2023-04-23T03:00:26;61197.16;;;-147.44;100.00
38033;BME280;23841;48.524;1.342;2023-04-23T03:02:52;61197.16;;;-147.44;100.00
38033;BME280;23841;48.524;1.342;2023-04-23T03:05:18;61197.16;;;-147.44;100.00
38033;BME280;23841;48.524;1.342;2023-04-23T03:07:43;61197.16;;;-147.44;100.00
38033;BME280;23841;48.524;1.342;2023-04-23T03:10:09;61197.16;;;-147.44;100.00
38033;BME280;23841;48.524;1.342;2023-04-23T03:12:34;61197.16;;;-147.44;100.00
38033;BME280;23841;48.524;1.342;2023-04-23T03:14:59;61197.16;;;-147.44;100.00
38033;BME280;23841;48.524;1.342;2023-04-23T03:17:25;61197.16;;;-147.44;100.00
38033;BME280;23841;48.524;1.342;2023-04-23T03:19:51;61197.16;;;-147.44;100.00
38033;BME280;23841;48.524;1.342;2023-04-23T03:22:16;61197.16;;;-147.44;100.00
38033;BME280;23841;48.524;1.342;2023-04-23T03:24:42;61197.16;;;-147.44;100.00
38033;BME280;23841;48.524;1.342;2023-04-23T03:27:07;61197.16;;;-147.44;100.00
38033;BME280;23841;48.524;1.342;2023-04-23T03:29:32;61197.16;;;-147.44;100.00
38033;BME280;23841;48.524;1.342;2023-04-23T03:31:58;61197.16;;;-147.44;100.00
38033;BME280;23841;48.524;1.342;2023-04-23T03:34:23;61197.16;;;-147.44;100.00
38033;BME280;23841;48.524;1.342;2023-04-23T03:36:49;61197.16;;;-147.44;100.00
38033;BME280;23841;48.524;1.342;2023-04-23T03:39:15;61197.16;;;-147.44;100.00
38033;BME280;23841;48.524;1.342;2023-04-23T03:41:40;61197.16;;;-147.44;100.00
38033;BME280;23841;48.524;1.342;2023-04-23T03:44:06;61197.16;;;-147.44;100.00
38033;BME280;23841;48.524;1.342;2023-04-23T03:46:31;61197.16;;;-147.44;100.00
38033;BME280;23841;48.524;1.342;2023-04-23T03:48:57;61197.16;;;-147.44;100.00
38033;BME280;23841;48.524;1.342;2023-04-23T03:51:22;61197.16;;;-147.44;100.00
38033;BME280;23841;48.524;1.342;2023-04-23T03:53:48;61197.16;;;-147.44;100.00
38033;BME280;23841;48.524;1.342;2023-04-23T03:56:14;61197.16;;;-147.44;100.00
38033;BME280;23841;48.524;1.342;2023-04-23T03:58:40;61197.16;;;-147.44;100.00
38033;BME280;23841;48.524;1.342;2023-04-23T04:01:05;61197.16;;;-147.44;100.00
38033;BME280;23841;48.524;1.342;2023-04-23T04:03:31;61197.16;;;-147.44;100.00
38033;BME280;23841;48.524;1.342;2023-04-23T04:05:56;61197.16;;;-147.44;100.00
38033;BME280;23841;48.524;1.342;2023-04-23T04:08:22;61197.16;;;-147.44;100.00
38033;BME280;23841;48.524;1.342;2023-04-23T04:10:47;61197.16;;;-147.44;100.00
38033;BME280;23841;48.524;1.342;2023-04-23T04:13:13;61197.16;;;-147.44;100.00
38033;BME280;23841;48.524;1.342;2023-04-23T04:15:40;61197.16;;;-147.44;100.00
38033;BME280;23841;48.524;1.342;2023-04-23T04:18:05;61197.16;;;-147.44;100.00
38033;BME280;23841;48.524;1.342;2023-04-23T04:20:31;61197.16;;;-147.44;100.00
38033;BME280;23841;48.524;1.342;2023-04-23T04:22:56;61197.16;;;-147.44;100.00
38033;BME280;23841;48.524;1.342;2023-04-23T04:25:22;61197.16;;;-147.44;100.00
38033;BME280;23841;48.524;1.342;2023-04-23T04:27:49;61197.16;;;-147.44;100.00
38033;BME280;23841;48.524;1.342;2023-04-23T04:30:14;61197.16;;;-147.44;100.00
38033;BME280;23841;48.524;1.342;2023-04-23T04:32:40;61197.16;;;-147.44;100.00
38033;BME280;23841;48.524;1.342;2023-04-23T04:35:06;61197.16;;;-147.44;100.00
38033;BME280;23841;48.524;1.342;2023-04-23T04:37:33;61197.16;;;-147.44;100.00
38033;BME280;23841;48.524;1.342;2023-04-23T04:39:59;61197.16;;;-147.44;100.00
38033;BME280;23841;48.524;1.342;2023-04-23T04:42:26;61197.16;;;-147.44;100.00
38033;BME280;23841;48.524;1.342;2023-04-23T04:44:51;61197.16;;;-147.44;100.00
38033;BME280;23841;48.524;1.342;2023-04-23T04:47:17;61197.16;;;-147.44;100.00
38033;BME280;23841;48.524;1.342;2023-04-23T04:49:43;61197.16;;;-147.44;100.00
38033;BME280;23841;48.524;1.342;2023-04-23T04:52:09;61197.16;;;-147.44;100.00
38033;BME280;23841;48.524;1.342;2023-04-23T04:54:35;61197.16;;;-147.44;100.00
38033;BME280;23841;48.524;1.342;2023-04-23T04:57:00;61197.16;;;-147.44;100.00
38033;BME280;23841;48.524;1.342;2023-04-23T04:59:26;61197.16;;;-147.44;100.00
38033;BME280;23841;48.524;1.342;2023-04-23T05:01:53;61197.16;;;-147.44;100.00
38033;BME280;23841;48.524;1.342;2023-04-23T05:04:18;61197.16;;;-147.44;100.00
38033;BME280;23841;48.524;1.342;2023-04-23T05:06:44;61197.16;;;-147.44;100.00
38033;BME280;23841;48.524;1.342;2023-04-23T05:09:10;61197.16;;;-147.44;100.00
38033;BME280;23841;48.524;1.342;2023-04-23T05:11:36;61197.16;;;-147.44;100.00
38033;BME280;23841;48.524;1.342;2023-04-23T05:14:01;61197.16;;;-147.44;100.00
38033;BME280;23841;48.524;1.342;2023-04-23T05:16:28;61197.16;;;-147.44;100.00
38033;BME280;23841;48.524;1.342;2023-04-23T05:18:54;61197.16;;;-147.44;100.00
38033;BME280;23841;48.524;1.342;2023-04-23T05:21:19;61197.16;;;-147.44;100.00
38033;BME280;23841;48.524;1.342;2023-04-23T05:23:45;61197.16;;;-147.44;100.00
38033;BME280;23841;48.524;1.342;2023-04-23T05:26:10;61197.16;;;-147.44;100.00
38033;BME280;23841;48.524;1.342;2023-04-23T05:28:36;61197.16;;;-147.44;100.00
38033;BME280;23841;48.524;1.342;2023-04-23T05:31:01;61197.16;;;-147.44;100.00
38033;BME280;23841;48.524;1.342;2023-04-23T05:33:27;61197.16;;;-147.44;100.00
38033;BME280;23841;48.524;1.342;2023-04-23T05:35:53;61197.16;;;-147.44;100.00
38033;BME280;23841;48.524;1.342;2023-04-23T05:38:19;61197.16;;;-147.44;100.00
38033;BME280;23841;48.524;1.342;2023-04-23T05:40:45;61197.16;;;-147.44;100.00
38033;BME280;23841;48.524;1.342;2023-04-23T05:43:11;61197.16;;;-147.44;100.00
38033;BME280;23841;48.524;1.342;2023-04-23T05:45:36;61197.16;;;-147.44;100.00
38033;BME280;23841;48.524;1.342;2023-04-23T05:48:02;61197.16;;;-147.44;100.00
38033;BME280;23841;48.524;1.342;2023-04-23T05:50:28;61197.16;;;-147.44;100.00
38033;BME280;23841;48.524;1.342;2023-04-23T05:52:53;61197.16;;;-147.44;100.00
38033;BME280;23841;48.524;1.342;2023-04-23T05:55:20;61197.16;;;-147.44;100.00
38033;BME280;23841;48.524;1.342;2023-04-23T05:57:45;61197.16;;;-147.44;100.00
38033;BME280;23841;48.524;1.342;2023-04-23T06:00:11;61197.16;;;-147.44;100.00
38033;BME280;23841;48.524;1.342;2023-04-23T06:02:37;61197.16;;;-147.44;100.00
38033;BME280;23841;48.524;1.342;2023-04-23T06:05:03;61197.16;;;-147.44;100.00
38033;BME280;23841;48.524;1.342;2023-04-23T06:07:30;61197.16;;;-147.44;100.00
38033;BME280;23841;48.524;1.342;2023-04-23T06:09:55;61197.16;;;-147.44;100.00
38033;BME280;23841;48.524;1.342;2023-04-23T06:12:21;61197.16;;;-147.44;100.00
38033;BME280;23841;48.524;1.342;2023-04-23T06:14:46;61197.16;;;-147.44;100.00
38033;BME280;23841;48.524;1.342;2023-04-23T06:17:12;61197.16;;;-147.44;100.00
38033;BME280;23841;48.524;1.342;2023-04-23T06:19:37;61197.16;;;-147.44;100.00
38033;BME280;23841;48.524;1.342;2023-04-23T06:22:03;61197.16;;;-147.44;100.00
38033;BME280;23841;48.524;1.342;2023-04-23T06:24:28;61197.16;;;-147.44;100.00
38033;BME280;23841;48.524;1.342;2023-04-23T06:26:54;61197.16;;;-147.44;100.00
38033;BME280;23841;48.524;1.342;2023-04-23T06:29:20;61197.16;;;-147.44;100.00
38033;BME280;23841;48.524;1.342;2023-04-23T06:31:45;61197.16;;;-147.44;100.00
38033;BME280;23841;48.524;1.342;2023-04-23T06:34:11;61197.16;;;-147.44;100.00
38033;BME280;23841;48.524;1.342;2023-04-23T06:36:36;61197.16;;;-147.44;100.00
38033;BME280;23841;48.524;1.342;2023-04-23T06:39:02;61197.16;;;-147.44;100.00
38033;BME280;23841;48.524;1.342;2023-04-23T06:41:27;61197.16;;;-147.44;100.00
38033;BME280;23841;48.524;1.342;2023-04-23T06:43:53;61197.16;;;-147.44;100.00
38033;BME280;23841;48.524;1.342;2023-04-23T06:46:18;61197.16;;;-147.44;100.00
38033;BME280;23841;48.524;1.342;2023-04-23T06:48:44;61197.16;;;-147.44;100.00
38033;BME280;23841;48.524;1.342;2023-04-23T06:51:10;61197.16;;;-147.44;100.00
38033;BME280;23841;48.524;1.342;2023-04-23T06:53:35;61197.16;;;-147.44;100.00
38033;BME280;23841;48.524;1.342;2023-04-23T06:56:01;61197.16;;;-147.44;100.00
38033;BME280;23841;48.524;1.342;2023-04-23T06:58:26;61197.16;;;-147.44;100.00
38033;BME280;23841;48.524;1.342;2023-04-23T07:00:57;61197.16;;;-147.44;100.00
38033;BME280;23841;48.524;1.342;2023-04-23T07:03:28;61197.16;;;-147.44;100.00
38033;BME280;23841;48.524;1.342;2023-04-23T07:05:56;61197.16;;;-147.44;100.00
38033;BME280;23841;48.524;1.342;2023-04-23T07:08:21;61197.16;;;-147.44;100.00
38033;BME280;23841;48.524;1.342;2023-04-23T07:10:47;61197.16;;;-147.44;100.00
38033;BME280;23841;48.524;1.342;2023-04-23T07:13:13;61197.16;;;-147.44;100.00
38033;BME280;23841;48.524;1.342;2023-04-23T07:15:38;61197.16;;;-147.44;100.00
38033;BME280;23841;48.524;1.342;2023-04-23T07:18:05;61197.16;;;-147.44;100.00
38033;BME280;23841;48.524;1.342;2023-04-23T07:20:31;61197.16;;;-147.44;100.00
38033;BME280;23841;48.524;1.342;2023-04-23T07:22:57;61197.16;;;-147.44;100.00
38033;BME280;23841;48.524;1.342;2023-04-23T07:25:23;61197.16;;;-147.44;100.00
38033;BME280;23841;48.524;1.342;2023-04-23T07:27:52;61197.16;;;-147.44;100.00
38033;BME280;23841;48.524;1.342;2023-04-23T07:30:18;61197.16;;;-147.44;100.00
38033;BME280;23841;48.524;1.342;2023-04-23T07:32:44;61197.16;;;-147.44;100.00
38033;BME280;23841;48.524;1.342;2023-04-23T07:35:10;61197.16;;;-147.44;100.00
38033;BME280;23841;48.524;1.342;2023-04-23T07:37:36;61197.16;;;-147.44;100.00
38033;BME280;23841;48.524;1.342;2023-04-23T07:40:02;61197.16;;;-147.44;100.00
38033;BME280;23841;48.524;1.342;2023-04-23T07:42:30;61197.16;;;-147.44;100.00
38033;BME280;23841;48.524;1.342;2023-04-23T07:44:57;61197.16;;;-147.44;100.00
38033;BME280;23841;48.524;1.342;2023-04-23T07:47:23;61197.16;;;-147.44;100.00
38033;BME280;23841;48.524;1.342;2023-04-23T07:49:48;61197.16;;;-147.44;100.00
38033;BME280;23841;48.524;1.342;2023-04-23T07:52:15;61197.16;;;-147.44;100.00
38033;BME280;23841;48.524;1.342;2023-04-23T07:54:40;61197.16;;;-147.44;100.00
38033;BME280;23841;48.524;1.342;2023-04-23T07:57:06;61197.16;;;-147.44;100.00
38033;BME280;23841;48.524;1.342;2023-04-23T07:59:31;61197.16;;;-147.44;100.00
38033;BME280;23841;48.524;1.342;2023-04-23T08:01:57;61197.16;;;-147.44;100.00
38033;BME280;23841;48.524;1.342;2023-04-23T08:04:22;61197.16;;;-147.44;100.00
38033;BME280;23841;48.524;1.342;2023-04-23T08:06:48;61197.16;;;-147.44;100.00
38033;BME280;23841;48.524;1.342;2023-04-23T08:09:14;61197.16;;;-147.44;100.00
38033;BME280;23841;48.524;1.342;2023-04-23T08:11:40;61197.16;;;-147.44;100.00
38033;BME280;23841;48.524;1.342;2023-04-23T08:14:05;61197.16;;;-147.44;100.00
38033;BME280;23841;48.524;1.342;2023-04-23T08:16:31;61197.16;;;-147.44;100.00
38033;BME280;23841;48.524;1.342;2023-04-23T08:18:57;61197.16;;;-147.44;100.00
38033;BME280;23841;48.524;1.342;2023-04-23T08:21:23;61197.16;;;-147.44;100.00
38033;BME280;23841;48.524;1.342;2023-04-23T08:23:49;61197.16;;;-147.44;100.00
38033;BME280;23841;48.524;1.342;2023-04-23T08:26:15;61197.16;;;-147.44;100.00
38033;BME280;23841;48.524;1.342;2023-04-23T08:28:40;61197.16;;;-147.44;100.00
38033;BME280;23841;48.524;1.342;2023-04-23T08:31:06;61197.16;;;-147.44;100.00
38033;BME280;23841;48.524;1.342;2023-04-23T08:33:32;61197.16;;;-147.44;100.00
38033;BME280;23841;48.524;1.342;2023-04-23T08:36:18;61197.16;;;-147.44;100.00
38033;BME280;23841;48.524;1.342;2023-04-23T08:38:45;61197.16;;;-147.44;100.00
38033;BME280;23841;48.524;1.342;2023-04-23T08:41:13;61197.16;;;-147.44;100.00
38033;BME280;23841;48.524;1.342;2023-04-23T08:43:45;61197.16;;;-147.44;100.00
38033;BME280;23841;48.524;1.342;2023-04-23T08:46:12;61197.16;;;-147.44;100.00
38033;BME280;23841;48.524;1.342;2023-04-23T08:48:40;61197.16;;;-147.44;100.00
38033;BME280;23841;48.524;1.342;2023-04-23T08:51:09;61197.16;;;-147.44;100.00
38033;BME280;23841;48.524;1.342;2023-04-23T08:53:36;61197.16;;;-147.44;100.00
38033;BME280;23841;48.524;1.342;2023-04-23T08:56:04;61197.16;;;-147.44;100.00
38033;BME280;23841;48.524;1.342;2023-04-23T10:20:27;97588.84;;;17.97;52.31
38033;BME280;23841;48.524;1.342;2023-04-23T10:22:53;97587.88;;;18.10;52.26
38033;BME280;23841;48.524;1.342;2023-04-23T10:25:20;97586.16;;;18.20;52.07
38033;BME280;23841;48.524;1.342;2023-04-23T10:27:48;97572.13;;;18.28;51.84
38033;BME280;23841;48.524;1.342;2023-04-23T10:30:14;97575.13;;;18.34;51.74
38033;BME280;23841;48.524;1.342;2023-04-23T10:32:39;97575.75;;;18.38;51.73
38033;BME280;23841;48.524;1.342;2023-04-23T10:35:07;97596.63;;;18.34;51.29
38033;BME280;23841;48.524;1.342;2023-04-23T10:37:34;97610.47;;;18.30;51.70
38033;BME280;23841;48.524;1.342;2023-04-23T10:40:06;97606.41;;;18.35;51.43
38033;BME280;23841;48.524;1.342;2023-04-23T10:42:34;97601.66;;;18.39;51.50
38033;BME280;23841;48.524;1.342;2023-04-23T10:44:59;97596.19;;;18.29;51.68
38033;BME280;23841;48.524;1.342;2023-04-23T10:47:25;97600.69;;;18.29;51.73
38033;BME280;23841;48.524;1.342;2023-04-23T10:49:50;97597.66;;;18.22;51.57
38033;BME280;23841;48.524;1.342;2023-04-23T10:52:17;97594.72;;;18.14;51.40
38033;BME280;23841;48.524;1.342;2023-04-23T10:54:47;97589.22;;;18.04;51.53
38033;BME280;23841;48.524;1.342;2023-04-23T10:57:13;97597.63;;;17.99;51.88
38033;BME280;23841;48.524;1.342;2023-04-23T11:00:01;97592.09;;;17.89;51.98
38033;BME280;23841;48.524;1.342;2023-04-23T11:02:25;97588.81;;;17.86;51.99
38033;BME280;23841;48.524;1.342;2023-04-23T11:04:55;97597.09;;;17.83;51.76
38033;BME280;23841;48.524;1.342;2023-04-23T11:07:29;97597.47;;;17.78;52.14
38033;BME280;23841;48.524;1.342;2023-04-23T11:09:58;97592.22;;;17.77;51.92
38033;BME280;23841;48.524;1.342;2023-04-23T11:14:50;97605.16;;;17.71;51.86
38033;BME280;23841;48.524;1.342;2023-04-23T11:17:19;97607.09;;;17.69;52.22
38033;BME280;23841;48.524;1.342;2023-04-23T11:22:45;97616.13;;;17.68;52.05
38033;BME280;23841;48.524;1.342;2023-04-23T11:25:18;97629.69;;;17.67;52.14
38033;BME280;23841;48.524;1.342;2023-04-23T11:27:45;97650.31;;;17.66;51.97
38033;BME280;23841;48.524;1.342;2023-04-23T11:30:21;97654.94;;;17.64;52.22
38033;BME280;23841;48.524;1.342;2023-04-23T11:32:51;97657.63;;;17.64;52.13
38033;BME280;23841;48.524;1.342;2023-04-23T11:35:19;97662.97;;;17.64;52.37
38033;BME280;23841;48.524;1.342;2023-04-23T11:37:46;97662.38;;;17.61;52.06
38033;BME280;23841;48.524;1.342;2023-04-23T11:40:16;97662.59;;;17.57;52.00
38033;BME280;23841;48.524;1.342;2023-04-23T11:42:52;97669.03;;;17.55;52.14
38033;BME280;23841;48.524;1.342;2023-04-23T11:47:45;97688.84;;;17.54;52.37
38033;BME280;23841;48.524;1.342;2023-04-23T11:50:26;97695.28;;;17.51;52.57
38033;BME280;23841;48.524;1.342;2023-04-23T11:52:53;97700.78;;;17.50;52.32
38033;BME280;23841;48.524;1.342;2023-04-23T11:55:19;97717.00;;;17.48;52.54
38033;BME280;23841;48.524;1.342;2023-04-23T11:57:49;97713.66;;;17.45;52.42
38033;BME280;23841;48.524;1.342;2023-04-23T12:00:17;97737.00;;;17.44;52.25
38033;BME280;23841;48.524;1.342;2023-04-23T12:02:53;97720.00;;;17.44;52.59
38033;BME280;23841;48.524;1.342;2023-04-23T12:05:27;97742.47;;;17.43;52.43
38033;BME280;23841;48.524;1.342;2023-04-23T12:07:53;97747.94;;;17.41;52.50
38033;BME280;23841;48.524;1.342;2023-04-23T12:10:20;97751.47;;;17.42;52.25
38033;BME280;23841;48.524;1.342;2023-04-23T12:12:52;97748.03;;;17.39;52.36
38033;BME280;23841;48.524;1.342;2023-04-23T12:15:18;97746.34;;;17.38;52.55
38033;BME280;23841;48.524;1.342;2023-04-23T12:17:48;97749.88;;;17.39;52.48
38033;BME280;23841;48.524;1.342;2023-04-23T12:20:21;97758.06;;;17.37;52.45
38033;BME280;23841;48.524;1.342;2023-04-23T12:22:47;97763.41;;;17.37;52.52
38033;BME280;23841;48.524;1.342;2023-04-23T12:25:13;97778.69;;;17.37;52.72
38033;BME280;23841;48.524;1.342;2023-04-23T12:27:39;97784.13;;;17.35;52.53
38033;BME280;23841;48.524;1.342;2023-04-23T12:30:07;97785.13;;;17.34;52.45
38033;BME280;23841;48.524;1.342;2023-04-23T12:32:33;97785.13;;;17.34;52.57
38033;BME280;23841;48.524;1.342;2023-04-23T12:34:59;97779.88;;;17.33;52.62
38033;BME280;23841;48.524;1.342;2023-04-23T12:37:29;97800.22;;;17.35;52.77
38033;BME280;23841;48.524;1.342;2023-04-23T12:39:55;97800.34;;;17.34;52.64
38033;BME280;23841;48.524;1.342;2023-04-23T12:42:23;97812.91;;;17.33;52.62
38033;BME280;23841;48.524;1.342;2023-04-23T12:44:49;97817.31;;;17.34;52.64
38033;BME280;23841;48.524;1.342;2023-04-23T12:47:16;97816.34;;;17.35;52.76
38033;BME280;23841;48.524;1.342;2023-04-23T12:49:44;97811.97;;;17.34;52.54
38033;BME280;23841;48.524;1.342;2023-04-23T12:52:10;97813.66;;;17.35;52.76
38033;BME280;23841;48.524;1.342;2023-04-23T12:54:37;97820.75;;;17.36;52.75
38033;BME280;23841;48.524;1.342;2023-04-23T12:57:10;97825.50;;;17.33;52.65
38033;BME280;23841;48.524;1.342;2023-04-23T12:59:37;97820.97;;;17.33;52.67
38033;BME280;23841;48.524;1.342;2023-04-23T13:02:03;97835.03;;;17.37;52.81
38033;BME280;23841;48.524;1.342;2023-04-23T13:04:34;97834.16;;;17.36;52.59
38033;BME280;23841;48.524;1.342;2023-04-23T13:07:01;97838.78;;;17.34;52.70
38033;BME280;23841;48.524;1.342;2023-04-23T13:09:27;97842.31;;;17.35;52.77
38033;BME280;23841;48.524;1.342;2023-04-23T13:11:53;97855.84;;;17.33;52.76
38033;BME280;23841;48.524;1.342;2023-04-23T13:14:19;97856.59;;;17.35;52.93
38033;BME280;23841;48.524;1.342;2023-04-23T13:16:45;97862.94;;;17.34;52.90
38033;BME280;23841;48.524;1.342;2023-04-23T13:19:11;97862.84;;;17.36;52.96
38033;BME280;23841;48.524;1.342;2023-04-23T13:21:38;97862.72;;;17.37;52.83
38033;BME280;23841;48.524;1.342;2023-04-23T13:24:03;97864.56;;;17.37;52.92
38033;BME280;23841;48.524;1.342;2023-04-23T13:26:29;97867.31;;;17.35;52.80
38033;BME280;23841;48.524;1.342;2023-04-23T13:28:57;97862.84;;;17.36;52.93
38033;BME280;23841;48.524;1.342;2023-04-23T13:31:23;97875.38;;;17.35;52.81
38033;BME280;23841;48.524;1.342;2023-04-23T13:33:48;97874.53;;;17.35;52.99
38033;BME280;23841;48.524;1.342;2023-04-23T13:36:14;97878.06;;;17.35;52.94
38033;BME280;23841;48.524;1.342;2023-04-23T13:38:39;97877.31;;;17.33;53.14
38033;BME280;23841;48.524;1.342;2023-04-23T13:41:04;97878.06;;;17.35;52.99
38033;BME280;23841;48.524;1.342;2023-04-23T13:43:30;97874.41;;;17.36;52.99
38033;BME280;23841;48.524;1.342;2023-04-23T13:45:55;97877.09;;;17.36;52.88
38033;BME280;23841;48.524;1.342;2023-04-23T13:48:21;97867.13;;;17.38;53.06
38033;BME280;23841;48.524;1.342;2023-04-23T13:50:47;97868.81;;;17.39;52.79
38033;BME280;23841;48.524;1.342;2023-04-23T13:53:12;97860.75;;;17.39;52.93
38033;BME280;23841;48.524;1.342;2023-04-23T13:55:38;97863.44;;;17.39;52.95
38033;BME280;23841;48.524;1.342;2023-04-23T13:58:04;97867.00;;;17.40;52.83
38033;BME280;23841;48.524;1.342;2023-04-23T14:00:31;97866.91;;;17.42;52.99
38033;BME280;23841;48.524;1.342;2023-04-23T14:02:56;97854.44;;;17.40;52.88